sensor_id;sensor_type;location;lat;lon;timestamp;P1;durP1;ratioP1;P2;durP2;ratioP2
47483;SDS011;54076;50.322;18.650;2024-03-29T00:04:23;4.90;;;2.10;;
47483;SDS011;54076;50.322;18.650;2024-03-29T00:09:24;5.70;;;2.20;;
47483;SDS011;54076;50.322;18.650;2024-03-29T00:14:25;6.10;;;2.40;;
47483;SDS011;54076;50.322;18.650;2024-03-29T00:19:27;7.40;;;2.60;;
47483;SDS011;54076;50.322;18.650;2024-03-29T00:24:28;6.80;;;2.60;;
47483;SDS011;54076;50.322;18.650;2024-03-29T00:29:28;5.90;;;2.70;;
47483;SDS011;54076;50.322;18.650;2024-03-29T00:34:30;8.20;;;3.00;;
47483;SDS011;54076;50.322;18.650;2024-03-29T00:39:31;5.70;;;2.80;;
47483;SDS011;54076;50.322;18.650;2024-03-29T00:44:32;6.40;;;2.20;;
47483;SDS011;54076;50.322;18.650;2024-03-29T00:49:33;5.80;;;2.50;;
47483;SDS011;54076;50.322;18.650;2024-03-29T00:54:34;6.50;;;2.60;;
47483;SDS011;54076;50.322;18.650;2024-03-29T00:59:35;7.90;;;2.60;;
47483;SDS011;54076;50.322;18.650;2024-03-29T01:04:36;5.10;;;2.20;;
47483;SDS011;54076;50.322;18.650;2024-03-29T01:09:39;4.80;;;2.10;;
47483;SDS011;54076;50.322;18.650;2024-03-29T01:14:40;4.60;;;2.10;;
47483;SDS011;54076;50.322;18.650;2024-03-29T01:19:41;7.60;;;2.00;;
47483;SDS011;54076;50.322;18.650;2024-03-29T01:24:41;4.60;;;2.10;;
47483;SDS011;54076;50.322;18.650;2024-03-29T01:29:42;4.10;;;2.00;;
47483;SDS011;54076;50.322;18.650;2024-03-29T01:34:43;6.10;;;2.20;;
47483;SDS011;54076;50.322;18.650;2024-03-29T01:39:44;4.60;;;2.30;;
47483;SDS011;54076;50.322;18.650;2024-03-29T01:44:45;4.00;;;1.90;;
47483;SDS011;54076;50.322;18.650;2024-03-29T01:49:46;4.20;;;2.20;;
47483;SDS011;54076;50.322;18.650;2024-03-29T01:54:47;5.80;;;2.20;;
47483;SDS011;54076;50.322;18.650;2024-03-29T01:59:49;4.70;;;2.20;;
47483;SDS011;54076;50.322;18.650;2024-03-29T02:04:50;4.50;;;2.00;;
47483;SDS011;54076;50.322;18.650;2024-03-29T02:09:52;5.40;;;2.20;;
47483;SDS011;54076;50.322;18.650;2024-03-29T02:14:53;6.10;;;2.40;;
47483;SDS011;54076;50.322;18.650;2024-03-29T02:19:54;4.90;;;2.10;;
47483;SDS011;54076;50.322;18.650;2024-03-29T02:24:55;4.30;;;1.80;;
47483;SDS011;54076;50.322;18.650;2024-03-29T02:29:56;10.30;;;2.50;;
47483;SDS011;54076;50.322;18.650;2024-03-29T02:34:57;5.10;;;2.20;;
47483;SDS011;54076;50.322;18.650;2024-03-29T02:39:58;5.40;;;2.30;;
47483;SDS011;54076;50.322;18.650;2024-03-29T02:44:59;6.50;;;2.20;;
47483;SDS011;54076;50.322;18.650;2024-03-29T02:50:00;6.10;;;2.30;;
47483;SDS011;54076;50.322;18.650;2024-03-29T02:55:01;5.10;;;2.10;;
47483;SDS011;54076;50.322;18.650;2024-03-29T03:00:04;5.20;;;2.60;;
47483;SDS011;54076;50.322;18.650;2024-03-29T03:05:07;4.50;;;2.00;;
47483;SDS011;54076;50.322;18.650;2024-03-29T03:10:08;5.10;;;2.10;;
47483;SDS011;54076;50.322;18.650;2024-03-29T03:15:28;4.30;;;1.80;;
47483;SDS011;54076;50.322;18.650;2024-03-29T03:20:29;5.40;;;2.20;;
47483;SDS011;54076;50.322;18.650;2024-03-29T03:25:32;4.60;;;2.10;;
47483;SDS011;54076;50.322;18.650;2024-03-29T03:30:38;4.30;;;2.20;;
47483;SDS011;54076;50.322;18.650;2024-03-29T03:35:42;5.10;;;2.00;;
47483;SDS011;54076;50.322;18.650;2024-03-29T03:40:43;4.90;;;2.00;;
47483;SDS011;54076;50.322;18.650;2024-03-29T03:45:44;5.40;;;1.90;;
47483;SDS011;54076;50.322;18.650;2024-03-29T03:50:45;5.30;;;2.20;;
47483;SDS011;54076;50.322;18.650;2024-03-29T03:55:46;6.40;;;2.50;;
47483;SDS011;54076;50.322;18.650;2024-03-29T04:00:47;6.00;;;2.70;;
47483;SDS011;54076;50.322;18.650;2024-03-29T04:05:48;6.10;;;2.50;;
47483;SDS011;54076;50.322;18.650;2024-03-29T04:10:49;6.60;;;2.90;;
47483;SDS011;54076;50.322;18.650;2024-03-29T04:15:50;6.50;;;2.70;;
47483;SDS011;54076;50.322;18.650;2024-03-29T04:21:04;6.20;;;3.00;;
47483;SDS011;54076;50.322;18.650;2024-03-29T04:26:05;4.80;;;2.40;;
47483;SDS011;54076;50.322;18.650;2024-03-29T04:31:06;5.00;;;2.80;;
47483;SDS011;54076;50.322;18.650;2024-03-29T04:36:07;7.10;;;2.60;;
47483;SDS011;54076;50.322;18.650;2024-03-29T04:41:09;6.10;;;2.80;;
47483;SDS011;54076;50.322;18.650;2024-03-29T04:46:14;6.30;;;2.90;;
47483;SDS011;54076;50.322;18.650;2024-03-29T04:51:15;7.00;;;3.40;;
47483;SDS011;54076;50.322;18.650;2024-03-29T04:56:16;5.40;;;2.60;;
47483;SDS011;54076;50.322;18.650;2024-03-29T05:01:18;6.90;;;2.70;;
47483;SDS011;54076;50.322;18.650;2024-03-29T05:06:19;7.30;;;2.60;;
47483;SDS011;54076;50.322;18.650;2024-03-29T05:11:20;6.90;;;3.20;;
47483;SDS011;54076;50.322;18.650;2024-03-29T05:16:20;5.90;;;2.90;;
47483;SDS011;54076;50.322;18.650;2024-03-29T05:21:22;6.80;;;2.50;;
47483;SDS011;54076;50.322;18.650;2024-03-29T05:26:23;6.50;;;2.60;;
47483;SDS011;54076;50.322;18.650;2024-03-29T05:31:25;4.80;;;2.70;;
47483;SDS011;54076;50.322;18.650;2024-03-29T05:36:27;5.70;;;2.60;;
47483;SDS011;54076;50.322;18.650;2024-03-29T05:41:28;4.90;;;2.70;;
47483;SDS011;54076;50.322;18.650;2024-03-29T05:46:31;4.50;;;2.30;;
47483;SDS011;54076;50.322;18.650;2024-03-29T05:51:32;8.10;;;2.70;;
47483;SDS011;54076;50.322;18.650;2024-03-29T05:56:34;5.40;;;2.10;;
47483;SDS011;54076;50.322;18.650;2024-03-29T06:01:35;6.80;;;2.20;;
47483;SDS011;54076;50.322;18.650;2024-03-29T06:06:36;5.40;;;2.10;;
47483;SDS011;54076;50.322;18.650;2024-03-29T06:11:38;4.10;;;2.10;;
47483;SDS011;54076;50.322;18.650;2024-03-29T06:16:39;4.40;;;1.80;;
47483;SDS011;54076;50.322;18.650;2024-03-29T06:21:58;7.40;;;2.10;;
47483;SDS011;54076;50.322;18.650;2024-03-29T06:26:59;4.20;;;2.00;;
47483;SDS011;54076;50.322;18.650;2024-03-29T06:32:00;4.60;;;2.20;;
47483;SDS011;54076;50.322;18.650;2024-03-29T06:37:01;4.80;;;1.90;;
47483;SDS011;54076;50.322;18.650;2024-03-29T06:42:03;5.10;;;2.30;;
47483;SDS011;54076;50.322;18.650;2024-03-29T06:47:08;5.10;;;1.90;;
47483;SDS011;54076;50.322;18.650;2024-03-29T06:52:09;4.60;;;1.90;;
47483;SDS011;54076;50.322;18.650;2024-03-29T06:57:11;4.20;;;2.00;;
47483;SDS011;54076;50.322;18.650;2024-03-29T07:02:15;4.60;;;1.90;;
47483;SDS011;54076;50.322;18.650;2024-03-29T07:07:16;5.20;;;1.70;;
47483;SDS011;54076;50.322;18.650;2024-03-29T07:12:17;4.00;;;1.40;;
47483;SDS011;54076;50.322;18.650;2024-03-29T07:17:18;6.20;;;2.00;;
47483;SDS011;54076;50.322;18.650;2024-03-29T07:22:19;5.10;;;2.00;;
47483;SDS011;54076;50.322;18.650;2024-03-29T07:27:20;4.30;;;1.60;;
47483;SDS011;54076;50.322;18.650;2024-03-29T07:32:21;4.10;;;1.70;;
47483;SDS011;54076;50.322;18.650;2024-03-29T07:37:22;4.90;;;1.60;;
47483;SDS011;54076;50.322;18.650;2024-03-29T07:42:23;7.00;;;1.80;;
47483;SDS011;54076;50.322;18.650;2024-03-29T07:47:24;5.80;;;2.00;;
47483;SDS011;54076;50.322;18.650;2024-03-29T07:52:26;4.20;;;1.70;;
47483;SDS011;54076;50.322;18.650;2024-03-29T07:57:27;3.90;;;1.70;;
47483;SDS011;54076;50.322;18.650;2024-03-29T08:02:28;4.40;;;1.80;;
47483;SDS011;54076;50.322;18.650;2024-03-29T08:07:32;4.50;;;1.60;;
47483;SDS011;54076;50.322;18.650;2024-03-29T08:12:33;4.40;;;1.60;;
47483;SDS011;54076;50.322;18.650;2024-03-29T08:17:36;4.20;;;1.70;;
47483;SDS011;54076;50.322;18.650;2024-03-29T08:22:37;3.90;;;1.60;;
47483;SDS011;54076;50.322;18.650;2024-03-29T08:27:38;5.50;;;1.50;;
47483;SDS011;54076;50.322;18.650;2024-03-29T08:32:39;4.90;;;1.60;;
47483;SDS011;54076;50.322;18.650;2024-03-29T08:37:40;4.40;;;1.40;;
47483;SDS011;54076;50.322;18.650;2024-03-29T08:42:42;7.60;;;2.20;;
47483;SDS011;54076;50.322;18.650;2024-03-29T08:47:43;3.40;;;1.30;;
47483;SDS011;54076;50.322;18.650;2024-03-29T08:52:44;4.00;;;1.30;;
47483;SDS011;54076;50.322;18.650;2024-03-29T08:57:45;5.20;;;1.60;;
47483;SDS011;54076;50.322;18.650;2024-03-29T09:02:46;4.60;;;1.40;;
47483;SDS011;54076;50.322;18.650;2024-03-29T09:07:47;5.10;;;2.00;;
47483;SDS011;54076;50.322;18.650;2024-03-29T09:12:49;5.20;;;1.80;;
47483;SDS011;54076;50.322;18.650;2024-03-29T09:17:50;8.00;;;1.70;;
47483;SDS011;54076;50.322;18.650;2024-03-29T09:22:55;3.30;;;1.50;;
47483;SDS011;54076;50.322;18.650;2024-03-29T09:27:55;3.60;;;1.60;;
47483;SDS011;54076;50.322;18.650;2024-03-29T09:32:56;4.00;;;1.70;;
47483;SDS011;54076;50.322;18.650;2024-03-29T09:37:57;4.10;;;1.30;;
47483;SDS011;54076;50.322;18.650;2024-03-29T09:43:00;5.20;;;1.70;;
47483;SDS011;54076;50.322;18.650;2024-03-29T09:48:06;4.40;;;1.40;;
47483;SDS011;54076;50.322;18.650;2024-03-29T09:53:09;4.00;;;1.80;;
47483;SDS011;54076;50.322;18.650;2024-03-29T09:58:10;5.10;;;1.60;;
47483;SDS011;54076;50.322;18.650;2024-03-29T10:03:11;4.40;;;1.30;;
47483;SDS011;54076;50.322;18.650;2024-03-29T10:08:13;3.90;;;1.40;;
47483;SDS011;54076;50.322;18.650;2024-03-29T10:13:15;4.10;;;1.30;;
47483;SDS011;54076;50.322;18.650;2024-03-29T10:18:16;4.40;;;1.60;;
47483;SDS011;54076;50.322;18.650;2024-03-29T10:23:18;3.80;;;1.50;;
47483;SDS011;54076;50.322;18.650;2024-03-29T10:28:30;4.30;;;1.60;;
47483;SDS011;54076;50.322;18.650;2024-03-29T10:33:34;4.40;;;1.40;;
47483;SDS011;54076;50.322;18.650;2024-03-29T10:38:35;4.70;;;1.60;;
47483;SDS011;54076;50.322;18.650;2024-03-29T10:43:36;5.50;;;1.60;;
47483;SDS011;54076;50.322;18.650;2024-03-29T10:48:40;3.60;;;1.40;;
47483;SDS011;54076;50.322;18.650;2024-03-29T10:53:43;5.30;;;1.70;;
47483;SDS011;54076;50.322;18.650;2024-03-29T10:58:46;3.80;;;1.40;;
47483;SDS011;54076;50.322;18.650;2024-03-29T11:03:58;5.10;;;2.10;;
47483;SDS011;54076;50.322;18.650;2024-03-29T11:09:06;4.90;;;1.50;;
47483;SDS011;54076;50.322;18.650;2024-03-29T11:14:16;3.10;;;1.20;;
47483;SDS011;54076;50.322;18.650;2024-03-29T11:19:21;2.70;;;0.90;;
47483;SDS011;54076;50.322;18.650;2024-03-29T11:24:22;5.00;;;1.40;;
47483;SDS011;54076;50.322;18.650;2024-03-29T11:29:24;3.50;;;1.30;;
47483;SDS011;54076;50.322;18.650;2024-03-29T11:34:25;4.30;;;1.50;;
47483;SDS011;54076;50.322;18.650;2024-03-29T11:39:26;3.00;;;0.90;;
47483;SDS011;54076;50.322;18.650;2024-03-29T11:44:27;3.00;;;1.00;;
47483;SDS011;54076;50.322;18.650;2024-03-29T11:49:28;3.70;;;1.10;;
47483;SDS011;54076;50.322;18.650;2024-03-29T11:54:29;3.30;;;1.10;;
47483;SDS011;54076;50.322;18.650;2024-03-29T11:59:37;3.80;;;1.30;;
47483;SDS011;54076;50.322;18.650;2024-03-29T12:04:40;3.00;;;0.90;;
47483;SDS011;54076;50.322;18.650;2024-03-29T12:09:42;3.70;;;1.40;;
47483;SDS011;54076;50.322;18.650;2024-03-29T12:14:43;3.50;;;1.20;;
47483;SDS011;54076;50.322;18.650;2024-03-29T12:19:44;3.70;;;1.00;;
47483;SDS011;54076;50.322;18.650;2024-03-29T12:24:46;3.30;;;1.10;;
47483;SDS011;54076;50.322;18.650;2024-03-29T12:29:47;2.40;;;0.70;;
47483;SDS011;54076;50.322;18.650;2024-03-29T12:34:48;3.10;;;0.90;;
47483;SDS011;54076;50.322;18.650;2024-03-29T12:39:49;2.50;;;0.70;;
47483;SDS011;54076;50.322;18.650;2024-03-29T12:44:54;4.70;;;1.20;;
47483;SDS011;54076;50.322;18.650;2024-03-29T12:49:56;3.70;;;1.40;;
47483;SDS011;54076;50.322;18.650;2024-03-29T12:54:59;4.10;;;0.90;;
47483;SDS011;54076;50.322;18.650;2024-03-29T13:00:00;3.20;;;1.10;;
47483;SDS011;54076;50.322;18.650;2024-03-29T13:05:03;2.70;;;0.90;;
47483;SDS011;54076;50.322;18.650;2024-03-29T13:10:05;4.10;;;1.20;;
47483;SDS011;54076;50.322;18.650;2024-03-29T13:15:17;3.00;;;0.90;;
47483;SDS011;54076;50.322;18.650;2024-03-29T13:20:22;3.10;;;0.80;;
47483;SDS011;54076;50.322;18.650;2024-03-29T13:25:24;4.30;;;1.30;;
47483;SDS011;54076;50.322;18.650;2024-03-29T13:30:26;3.10;;;0.70;;
47483;SDS011;54076;50.322;18.650;2024-03-29T13:35:27;4.30;;;1.00;;
47483;SDS011;54076;50.322;18.650;2024-03-29T13:40:29;4.80;;;1.10;;
47483;SDS011;54076;50.322;18.650;2024-03-29T13:45:31;4.40;;;1.30;;
47483;SDS011;54076;50.322;18.650;2024-03-29T13:50:32;4.10;;;1.00;;
47483;SDS011;54076;50.322;18.650;2024-03-29T13:55:33;3.70;;;1.00;;
47483;SDS011;54076;50.322;18.650;2024-03-29T14:00:34;4.30;;;1.60;;
47483;SDS011;54076;50.322;18.650;2024-03-29T14:05:35;5.10;;;1.30;;
47483;SDS011;54076;50.322;18.650;2024-03-29T14:10:36;6.60;;;1.00;;
47483;SDS011;54076;50.322;18.650;2024-03-29T14:15:37;5.20;;;1.20;;
47483;SDS011;54076;50.322;18.650;2024-03-29T14:20:39;3.20;;;1.00;;
47483;SDS011;54076;50.322;18.650;2024-03-29T14:25:40;4.50;;;1.40;;
47483;SDS011;54076;50.322;18.650;2024-03-29T14:30:41;4.00;;;1.20;;
47483;SDS011;54076;50.322;18.650;2024-03-29T14:35:41;3.60;;;1.20;;
47483;SDS011;54076;50.322;18.650;2024-03-29T14:40:43;4.00;;;1.10;;
47483;SDS011;54076;50.322;18.650;2024-03-29T14:45:44;6.30;;;1.40;;
47483;SDS011;54076;50.322;18.650;2024-03-29T14:50:45;5.00;;;1.80;;
47483;SDS011;54076;50.322;18.650;2024-03-29T14:55:46;4.20;;;1.40;;
47483;SDS011;54076;50.322;18.650;2024-03-29T15:00:47;4.20;;;1.30;;
47483;SDS011;54076;50.322;18.650;2024-03-29T15:05:48;6.00;;;1.30;;
47483;SDS011;54076;50.322;18.650;2024-03-29T15:10:59;4.10;;;1.20;;
47483;SDS011;54076;50.322;18.650;2024-03-29T15:16:01;4.60;;;1.60;;
47483;SDS011;54076;50.322;18.650;2024-03-29T15:21:03;4.40;;;1.60;;
47483;SDS011;54076;50.322;18.650;2024-03-29T15:26:05;4.70;;;1.50;;
47483;SDS011;54076;50.322;18.650;2024-03-29T15:31:13;6.10;;;1.40;;
47483;SDS011;54076;50.322;18.650;2024-03-29T15:36:20;4.50;;;1.40;;
47483;SDS011;54076;50.322;18.650;2024-03-29T15:41:22;5.80;;;1.50;;
47483;SDS011;54076;50.322;18.650;2024-03-29T15:46:23;6.50;;;1.70;;
47483;SDS011;54076;50.322;18.650;2024-03-29T15:51:24;4.70;;;1.30;;
47483;SDS011;54076;50.322;18.650;2024-03-29T15:56:25;3.70;;;1.20;;
47483;SDS011;54076;50.322;18.650;2024-03-29T16:01:27;5.40;;;1.40;;
47483;SDS011;54076;50.322;18.650;2024-03-29T16:06:28;6.30;;;2.00;;
47483;SDS011;54076;50.322;18.650;2024-03-29T16:11:34;5.00;;;1.90;;
47483;SDS011;54076;50.322;18.650;2024-03-29T16:16:37;5.00;;;1.60;;
47483;SDS011;54076;50.322;18.650;2024-03-29T16:21:38;4.90;;;1.90;;
47483;SDS011;54076;50.322;18.650;2024-03-29T16:26:39;5.80;;;2.00;;
47483;SDS011;54076;50.322;18.650;2024-03-29T16:31:40;6.00;;;2.20;;
47483;SDS011;54076;50.322;18.650;2024-03-29T16:36:41;6.40;;;2.00;;
47483;SDS011;54076;50.322;18.650;2024-03-29T16:41:42;10.20;;;2.40;;
47483;SDS011;54076;50.322;18.650;2024-03-29T16:46:44;6.80;;;2.30;;
47483;SDS011;54076;50.322;18.650;2024-03-29T16:51:45;9.00;;;2.60;;
47483;SDS011;54076;50.322;18.650;2024-03-29T16:56:46;8.00;;;2.80;;
47483;SDS011;54076;50.322;18.650;2024-03-29T17:01:47;9.40;;;3.30;;
47483;SDS011;54076;50.322;18.650;2024-03-29T17:06:48;10.10;;;3.70;;
47483;SDS011;54076;50.322;18.650;2024-03-29T17:11:49;7.80;;;3.30;;
47483;SDS011;54076;50.322;18.650;2024-03-29T17:16:50;10.20;;;4.30;;
47483;SDS011;54076;50.322;18.650;2024-03-29T17:21:51;11.20;;;3.70;;
47483;SDS011;54076;50.322;18.650;2024-03-29T17:26:54;12.20;;;4.50;;
47483;SDS011;54076;50.322;18.650;2024-03-29T17:31:58;10.60;;;3.80;;
47483;SDS011;54076;50.322;18.650;2024-03-29T17:36:59;11.10;;;4.00;;
47483;SDS011;54076;50.322;18.650;2024-03-29T17:42:01;9.80;;;3.20;;
47483;SDS011;54076;50.322;18.650;2024-03-29T17:47:03;10.80;;;4.00;;
47483;SDS011;54076;50.322;18.650;2024-03-29T17:52:05;12.30;;;4.10;;
47483;SDS011;54076;50.322;18.650;2024-03-29T17:57:06;10.90;;;3.70;;
47483;SDS011;54076;50.322;18.650;2024-03-29T18:02:07;9.90;;;3.50;;
47483;SDS011;54076;50.322;18.650;2024-03-29T18:07:08;8.00;;;3.50;;
47483;SDS011;54076;50.322;18.650;2024-03-29T18:12:09;10.90;;;3.80;;
47483;SDS011;54076;50.322;18.650;2024-03-29T18:17:10;11.70;;;4.10;;
47483;SDS011;54076;50.322;18.650;2024-03-29T18:22:11;11.30;;;3.90;;
47483;SDS011;54076;50.322;18.650;2024-03-29T18:27:12;13.70;;;4.50;;
47483;SDS011;54076;50.322;18.650;2024-03-29T18:32:13;12.60;;;4.40;;
47483;SDS011;54076;50.322;18.650;2024-03-29T18:37:14;11.30;;;4.70;;
47483;SDS011;54076;50.322;18.650;2024-03-29T18:42:15;12.10;;;4.70;;
47483;SDS011;54076;50.322;18.650;2024-03-29T18:47:16;13.20;;;4.40;;
47483;SDS011;54076;50.322;18.650;2024-03-29T18:52:17;10.80;;;4.10;;
47483;SDS011;54076;50.322;18.650;2024-03-29T18:57:18;13.70;;;4.40;;
47483;SDS011;54076;50.322;18.650;2024-03-29T19:02:19;15.60;;;5.00;;
47483;SDS011;54076;50.322;18.650;2024-03-29T19:07:20;13.00;;;4.50;;
47483;SDS011;54076;50.322;18.650;2024-03-29T19:12:21;12.90;;;4.30;;
47483;SDS011;54076;50.322;18.650;2024-03-29T19:17:22;14.20;;;5.20;;
47483;SDS011;54076;50.322;18.650;2024-03-29T19:22:23;17.70;;;5.20;;
47483;SDS011;54076;50.322;18.650;2024-03-29T19:27:24;14.90;;;5.00;;
47483;SDS011;54076;50.322;18.650;2024-03-29T19:32:27;19.60;;;4.90;;
47483;SDS011;54076;50.322;18.650;2024-03-29T19:37:28;12.00;;;4.70;;
47483;SDS011;54076;50.322;18.650;2024-03-29T19:42:29;16.30;;;5.30;;
47483;SDS011;54076;50.322;18.650;2024-03-29T19:47:30;14.80;;;5.40;;
47483;SDS011;54076;50.322;18.650;2024-03-29T19:52:32;14.90;;;5.20;;
47483;SDS011;54076;50.322;18.650;2024-03-29T19:57:34;14.40;;;5.20;;
47483;SDS011;54076;50.322;18.650;2024-03-29T20:02:35;13.80;;;4.40;;
47483;SDS011;54076;50.322;18.650;2024-03-29T20:07:37;14.00;;;5.00;;
47483;SDS011;54076;50.322;18.650;2024-03-29T20:12:38;12.80;;;4.90;;
47483;SDS011;54076;50.322;18.650;2024-03-29T20:17:39;15.90;;;5.60;;
47483;SDS011;54076;50.322;18.650;2024-03-29T20:22:40;16.70;;;6.40;;
47483;SDS011;54076;50.322;18.650;2024-03-29T20:27:41;17.30;;;6.00;;
47483;SDS011;54076;50.322;18.650;2024-03-29T20:32:46;16.50;;;6.00;;
47483;SDS011;54076;50.322;18.650;2024-03-29T20:37:48;17.80;;;5.80;;
47483;SDS011;54076;50.322;18.650;2024-03-29T20:42:49;14.50;;;5.30;;
47483;SDS011;54076;50.322;18.650;2024-03-29T20:47:50;12.90;;;5.00;;
47483;SDS011;54076;50.322;18.650;2024-03-29T20:52:52;16.90;;;5.00;;
47483;SDS011;54076;50.322;18.650;2024-03-29T20:57:54;14.00;;;4.80;;
47483;SDS011;54076;50.322;18.650;2024-03-29T21:02:56;13.70;;;4.70;;
47483;SDS011;54076;50.322;18.650;2024-03-29T21:08:16;15.60;;;4.90;;
47483;SDS011;54076;50.322;18.650;2024-03-29T21:13:17;13.70;;;4.60;;
47483;SDS011;54076;50.322;18.650;2024-03-29T21:18:18;13.30;;;5.40;;
47483;SDS011;54076;50.322;18.650;2024-03-29T21:23:19;12.20;;;4.40;;
47483;SDS011;54076;50.322;18.650;2024-03-29T21:28:20;13.20;;;4.20;;
47483;SDS011;54076;50.322;18.650;2024-03-29T21:33:21;12.40;;;4.40;;
47483;SDS011;54076;50.322;18.650;2024-03-29T21:38:22;11.20;;;4.20;;
47483;SDS011;54076;50.322;18.650;2024-03-29T21:43:23;12.10;;;3.80;;
47483;SDS011;54076;50.322;18.650;2024-03-29T21:48:26;12.60;;;4.00;;
47483;SDS011;54076;50.322;18.650;2024-03-29T21:53:27;13.30;;;4.00;;
47483;SDS011;54076;50.322;18.650;2024-03-29T21:58:28;14.00;;;4.90;;
47483;SDS011;54076;50.322;18.650;2024-03-29T22:03:29;13.70;;;4.20;;
47483;SDS011;54076;50.322;18.650;2024-03-29T22:08:30;11.40;;;4.30;;
47483;SDS011;54076;50.322;18.650;2024-03-29T22:13:31;15.70;;;4.30;;
47483;SDS011;54076;50.322;18.650;2024-03-29T22:18:32;12.70;;;4.70;;
47483;SDS011;54076;50.322;18.650;2024-03-29T22:23:33;15.20;;;5.80;;
47483;SDS011;54076;50.322;18.650;2024-03-29T22:28:34;15.20;;;4.80;;
47483;SDS011;54076;50.322;18.650;2024-03-29T22:33:35;13.80;;;5.10;;
47483;SDS011;54076;50.322;18.650;2024-03-29T22:38:36;16.10;;;4.80;;
47483;SDS011;54076;50.322;18.650;2024-03-29T22:43:37;12.80;;;4.40;;
47483;SDS011;54076;50.322;18.650;2024-03-29T22:48:38;12.80;;;4.20;;
47483;SDS011;54076;50.322;18.650;2024-03-29T22:53:39;12.30;;;4.10;;
47483;SDS011;54076;50.322;18.650;2024-03-29T22:58:42;14.10;;;4.10;;
47483;SDS011;54076;50.322;18.650;2024-03-29T23:03:43;16.90;;;4.30;;
47483;SDS011;54076;50.322;18.650;2024-03-29T23:08:44;12.90;;;4.60;;
47483;SDS011;54076;50.322;18.650;2024-03-29T23:13:45;12.40;;;4.50;;
47483;SDS011;54076;50.322;18.650;2024-03-29T23:18:46;13.90;;;4.50;;
47483;SDS011;54076;50.322;18.650;2024-03-29T23:23:47;18.60;;;5.30;;
47483;SDS011;54076;50.322;18.650;2024-03-29T23:28:48;17.10;;;5.20;;
47483;SDS011;54076;50.322;18.650;2024-03-29T23:33:49;17.70;;;4.60;;
47483;SDS011;54076;50.322;18.650;2024-03-29T23:38:50;16.90;;;4.30;;
47483;SDS011;54076;50.322;18.650;2024-03-29T23:43:52;13.60;;;4.70;;
47483;SDS011;54076;50.322;18.650;2024-03-29T23:48:53;15.90;;;5.00;;
47483;SDS011;54076;50.322;18.650;2024-03-29T23:53:54;12.90;;;4.20;;
47483;SDS011;54076;50.322;18.650;2024-03-29T23:58:58;14.00;;;4.10;;
